• Join FlightAware (Why Join?)
  • Login
  • US Flag 
09:32AM EDT


 

Airport Tracker/Info


-or-


 

Live Flight TrackerFlight Track Log ✈ ASQ5755 ✈ 11-May-2013 ✈ KHSV - KIAD

Flight Track Log - Related Links

Times and Time Zones

All times are in EDT time to prevent confusion due to time zone crossing. See the ASQ5755 flight status page for this flight to view local times or setup timezone preferences in your user account.

Time Position Orientation Groundspeed Altitude Reporting Facility
EDT Latitude Longitude Course Direction KTS MPH feet Rate Location/Type
10:42AM 34.6756 -86.6853 North 263 303 8,700  Level Memphis Center
10:43AM 34.7567 -86.6844 360° North 274 315 11,100 2,100 Climbing Memphis Center
10:44AM 34.8444 -86.6856 359° North 288 331 12,900 1,800 Climbing Memphis Center
10:45AM 35.2925 -86.7241 North  Level FlightAware Approximate
10:45AM 34.9364 -86.6867 359° North 311 358 14,700  Level Memphis Center
10:46AM 35.4025 -86.7167 North  Level FlightAware Approximate
10:46AM 35.0342 -86.6825 North 330 380 16,500  Level Memphis Center
10:47AM 35.1325 -86.6883 357° North 345 397 17,800 1,440 Climbing Memphis Center
10:48AM 35.2367 -86.6886 360° North 366 421 19,400 1,500 Climbing Memphis Center
10:49AM 35.3283 -86.6847 North 366 421 20,900 1,500 Climbing Memphis Center
10:50AM 35.4325 -86.6775 North 366 421 22,400 1,200 Climbing Memphis Center
10:51AM 35.5367 -86.6781 360° North 366 421 23,400 1,140 Climbing Memphis Center
10:52AM 35.6172 -86.5747 46° Northeast 379 436 24,700 1,080 Climbing Memphis Center
10:53AM 35.6756 -86.4392 62° Northeast 415 478 25,600 720 Climbing Memphis Center
10:54AM 35.7336 -86.3011 63° Northeast 446 513 26,200 600 Climbing Memphis Center
10:55AM 35.7975 -86.1572 61° Northeast 470 541 26,900 780 Climbing Memphis Center
10:56AM 35.8572 -86.0131 63° Northeast 470 541 27,800 960 Climbing Memphis Center
10:57AM 35.9189 -85.8689 62° Northeast 475 547 28,900 660 Climbing Memphis Center
10:59AM 36.0619 -85.5294 62° Northeast 489 563 30,100 480 Climbing Indianapolis Center
11:00AM 36.1269 -85.3753 62° Northeast 501 577 30,600 480 Climbing Indianapolis Center
11:01AM 36.1914 -85.2189 63° Northeast 506 582 31,100 480 Climbing Indianapolis Center
11:02AM 36.2564 -85.0603 63° Northeast 511 588 31,700 480 Climbing Indianapolis Center
11:03AM 36.3231 -84.9000 63° Northeast 516 594 32,200 480 Climbing Indianapolis Center
11:04AM 36.3883 -84.7392 63° Northeast 519 597 32,700 360 Climbing Indianapolis Center
11:05AM 36.4533 -84.5781 63° Northeast 520 598 33,000 120 Climbing Indianapolis Center
11:06AM 36.5239 -84.4003 64° Northeast 530 610 33,000  Level Indianapolis Center
11:07AM 36.5903 -84.2386 63° Northeast 527 606 33,000  Level Indianapolis Center
11:08AM 36.6650 -84.0547 63° Northeast 509 586 33,000  Level Indianapolis Center
11:09AM 36.7278 -83.8983 63° Northeast 503 579 33,000  Level Indianapolis Center
11:10AM 36.7900 -83.7436 63° Northeast 501 577 33,000  Level Indianapolis Center
11:11AM 36.8500 -83.5903 64° Northeast 490 564 33,000  Level Indianapolis Center
11:12AM 36.9100 -83.4389 64° Northeast 485 558 33,000  Level Indianapolis Center
11:13AM 36.9686 -83.2875 64° Northeast 481 554 33,000  Level Indianapolis Center
11:14AM 37.0275 -83.1356 64° Northeast 481 554 33,000  Level Indianapolis Center
11:15AM 37.0869 -82.9814 64° Northeast 482 555 33,000  Level Indianapolis Center
11:16AM 37.1467 -82.8269 64° Northeast 484 557 33,000  Level Indianapolis Center
11:17AM 37.2044 -82.6742 65° Northeast 481 554 33,000  Level Indianapolis Center
11:18AM 37.2725 -82.4967 64° Northeast 482 555 33,000  Level Indianapolis Center
11:19AM 37.3308 -82.3444 64° Northeast 482 555 33,000  Level Indianapolis Center
11:20AM 37.3878 -82.1914 65° Northeast 482 555 33,000  Level Indianapolis Center
11:22AM 37.4450 -82.0386 65° Northeast 482 555 33,000  Level Indianapolis Center
11:23AM 37.5036 -81.8850 64° Northeast 484 557 33,000  Level Indianapolis Center
11:24AM 37.5603 -81.7314 65° Northeast 483 556 33,000  Level Indianapolis Center
11:25AM 37.6161 -81.5775 65° Northeast 482 555 33,000  Level Indianapolis Center
11:26AM 37.6806 -81.4044 65° Northeast 484 557 33,000  Level Indianapolis Center
11:26AM 37.6992 -81.3506 66° East 477 549 33,000  Level Washington Center
11:27AM 37.7544 -81.1972 65° Northeast 477 549 33,000  Level Washington Center
11:28AM 37.8117 -81.0411 65° Northeast 477 549 33,000  Level Washington Center
11:29AM 37.8664 -80.8872 66° East 477 549 33,000  Level Washington Center
11:30AM 37.9281 -80.7178 65° Northeast 483 556 33,000 -420 Level Washington Center
11:31AM 38.0050 -80.5781 55° Northeast 478 550 32,200 -1,680 Descending Washington Center
11:32AM 38.0944 -80.4308 52° Northeast 498 573 29,700 -2,520 Descending Washington Center
11:33AM 38.1858 -80.2836 52° Northeast 520 598 27,200 -1,380 Descending Washington Center
11:34AM 38.2728 -80.1356 53° Northeast 520 598 27,000 -360 Descending Washington Center
11:35AM 38.3425 -79.9997 57° Northeast 515 593 26,500 -780 Descending Washington Center
11:36AM 38.4164 -79.8581 56° Northeast 496 571 25,500 -1,020 Descending Washington Center
11:37AM 38.4614 -79.7069 69° East 471 542 24,600 -780 Descending Washington Center
11:38AM 38.5003 -79.5447 73° East 465 535 24,000 -300 Descending Washington Center
11:39AM 38.5344 -79.3897 74° East 465 535 24,000  Level Washington Center
11:40AM 38.5578 -79.2422 79° East 459 528 24,000 -1,020 Level Washington Center
11:41AM 38.5881 -79.0658 78° East 465 535 22,000 -2,340 Descending Washington Center
11:42AM 38.6108 -78.9181 79° East 450 518 19,300 -2,400 Descending Washington Center
11:43AM 38.6375 -78.7811 76° East 421 484 17,200 -2,040 Descending Washington Center
11:44AM 38.6703 -78.6442 73° East 399 459 15,200 -2,040 Descending Washington Center
11:45AM 38.7006 -78.5153 73° East 386 444 13,100 -2,040 Descending Washington Center
11:46AM 38.7286 -78.3911 74° East 369 425 11,200 -1,680 Descending Washington Center
11:47AM 38.7850 -78.3028 51° Northeast 326 375 9,800 -1,140 Descending Washington Center
11:48AM 38.8408 -78.2222 48° Northeast 313 360 9,000 -960 Descending Washington Center
11:49AM 38.8764 -78.1247 65° Northeast 300 345 7,900 -1,320 Descending Washington Center
11:50AM 38.9014 -78.0217 73° East 295 339 6,400 -960 Descending Washington Center
11:51AM 38.9261 -77.9236 72° East 295 339 6,000 -240 Descending Washington Center
11:52AM 38.9533 -77.8097 73° East 295 339 6,000  Level Washington Center
11:53AM 38.9594 -77.7058 86° East 295 339 6,000 -180 Level Washington Center
11:54AM 38.9833 -77.6000 74° East 301 346 5,700 -720 Descending Potomac TRACON
11:55AM 39.0667 -77.5667 17° North 270 311 4,500 -1,320 Descending Potomac TRACON
11:56AM 39.1167 -77.5167 38° Northeast 287 330 3,100 -1,140 Descending Potomac TRACON
11:57AM 39.0667 -77.4667 142° Southeast 247 284 2,300 -960 Descending Potomac TRACON
11:58AM 39.0167 -77.4667 180° South 182 209 1,200 -1,140 Descending Potomac TRACON
12:00PM 38.9474 -77.4599 165° South  Level Estimated
12:07PM 38.9474 -77.4599 165° South  Level Estimated
12:08PM 38.9474 -77.4599 165° South  Level Estimated
12:09PM 38.9474 -77.4599 165° South  Level Estimated
12:10PM 38.9474 -77.4599 165° South  Level Estimated